TimeCST,TemperatureF,Dew PointF,Humidity,Sea Level PressureIn,VisibilityMPH,Wind Direction,Wind SpeedMPH,Gust SpeedMPH,PrecipitationIn,Events,Conditions,WindDirDegrees,DateUTC
12:15 AM,-16.8,-21.5,79,30.08,10.0,Calm,Calm,-,N/A,,Clear,0,2013-02-17 06:15:00
12:35 AM,-16.8,-20.9,81,30.08,4.0,Calm,Calm,-,N/A,,Scattered Clouds,0,2013-02-17 06:35:00
12:55 AM,-18.6,-23.1,80,30.09,10.0,Calm,Calm,-,N/A,,Scattered Clouds,0,2013-02-17 06:55:00
1:15 AM,-17.5,-22.2,79,30.09,10.0,Calm,Calm,-,N/A,,Clear,0,2013-02-17 07:15:00
1:35 AM,-15.0,-19.5,80,30.09,10.0,Calm,Calm,-,N/A,,Clear,0,2013-02-17 07:35:00
1:55 AM,-17.3,-22.0,79,30.09,10.0,Calm,Calm,-,N/A,,Clear,0,2013-02-17 07:55:00
2:15 AM,-20.0,-25.2,77,30.09,10.0,Calm,Calm,-,N/A,,Scattered Clouds,0,2013-02-17 08:15:00
2:35 AM,-19.7,-24.7,78,30.09,10.0,Calm,Calm,-,N/A,,Overcast,0,2013-02-17 08:35:00
2:55 AM,-20.0,-25.2,77,30.09,10.0,Calm,Calm,-,N/A,,Mostly Cloudy,0,2013-02-17 08:55:00
3:15 AM,-19.3,-24.2,78,30.08,10.0,Calm,Calm,-,N/A,,Overcast,0,2013-02-17 09:15:00
3:35 AM,-20.0,-25.2,77,30.08,10.0,Calm,Calm,-,N/A,,Overcast,0,2013-02-17 09:35:00
3:55 AM,-19.5,-24.3,78,30.08,10.0,Calm,Calm,-,N/A,,Overcast,0,2013-02-17 09:55:00
4:15 AM,-20.0,-25.2,77,30.07,10.0,Calm,Calm,-,N/A,,Mostly Cloudy,0,2013-02-17 10:15:00
4:35 AM,-20.2,-25.6,76,30.08,10.0,Calm,Calm,-,N/A,,Mostly Cloudy,0,2013-02-17 10:35:00
4:55 AM,-20.0,-25.2,77,30.07,10.0,Calm,Calm,-,N/A,,Scattered Clouds,0,2013-02-17 10:55:00
5:15 AM,-21.1,-26.7,75,30.08,10.0,Calm,Calm,-,N/A,,Scattered Clouds,0,2013-02-17 11:15:00
5:35 AM,-21.5,-27.2,75,30.07,10.0,Calm,Calm,-,N/A,,Clear,0,2013-02-17 11:35:00
5:55 AM,-21.8,-27.2,76,30.08,10.0,Calm,Calm,-,N/A,,Clear,0,2013-02-17 11:55:00
6:15 AM,-20.4,-26.0,75,30.08,10.0,Calm,Calm,-,N/A,,Clear,0,2013-02-17 12:15:00
6:35 AM,-20.0,-25.2,77,30.08,10.0,Calm,Calm,-,N/A,,Clear,0,2013-02-17 12:35:00
6:55 AM,-20.9,-26.5,75,30.08,10.0,Calm,Calm,-,N/A,,Clear,0,2013-02-17 12:55:00
7:15 AM,-20.6,-26.0,76,30.08,10.0,Calm,Calm,-,N/A,,Clear,0,2013-02-17 13:15:00
7:35 AM,-20.4,-25.8,76,30.08,10.0,Calm,Calm,-,N/A,,Clear,0,2013-02-17 13:35:00
7:55 AM,-19.3,-24.7,76,30.08,10.0,Calm,Calm,-,N/A,,Clear,0,2013-02-17 13:55:00
8:15 AM,-17.3,-22.2,79,30.08,10.0,Calm,Calm,-,N/A,,Clear,0,2013-02-17 14:15:00
8:35 AM,-14.3,-18.6,81,30.08,10.0,Calm,Calm,-,N/A,,Clear,0,2013-02-17 14:35:00
8:55 AM,-11.2,-15.5,81,30.08,10.0,Calm,Calm,-,N/A,,Clear,0,2013-02-17 14:55:00
9:15 AM,-7.2,-11.6,81,30.08,10.0,Calm,Calm,-,N/A,,Clear,0,2013-02-17 15:15:00
9:35 AM,-3.1,-6.9,84,30.08,10.0,Calm,Calm,-,N/A,,Clear,0,2013-02-17 15:35:00
9:55 AM,0.3,-3.6,83,30.08,10.0,Calm,Calm,-,N/A,,Clear,0,2013-02-17 15:55:00
10:15 AM,3.6,-0.2,84,30.08,10.0,Calm,Calm,-,N/A,,Clear,0,2013-02-17 16:15:00
10:35 AM,7.2,2.8,82,30.07,10.0,Calm,Calm,-,N/A,,Clear,0,2013-02-17 16:35:00
10:55 AM,8.1,3.6,82,30.07,10.0,South,3.5,-,N/A,,Clear,190,2013-02-17 16:55:00
11:15 AM,12.2,-0.6,57,30.07,10.0,South,8.1,-,N/A,,Clear,190,2013-02-17 17:15:00
11:35 AM,13.1,-0.9,54,30.05,10.0,South,10.4,-,N/A,,Clear,190,2013-02-17 17:35:00
11:55 AM,13.6,-0.2,54,30.05,10.0,SSW,10.4,-,N/A,,Clear,200,2013-02-17 17:55:00
12:15 PM,14.2,-0.6,52,30.04,10.0,SSW,9.2,-,N/A,,Clear,200,2013-02-17 18:15:00
12:35 PM,14.9,-0.2,51,30.04,10.0,South,9.2,-,N/A,,Clear,190,2013-02-17 18:35:00
12:55 PM,15.4,0.1,51,30.03,10.0,South,10.4,-,N/A,,Clear,190,2013-02-17 18:55:00
1:15 PM,15.8,0.5,51,30.02,10.0,South,9.2,-,N/A,,Clear,180,2013-02-17 19:15:00
1:35 PM,16.2,0.3,50,30.00,10.0,South,8.1,-,N/A,,Clear,180,2013-02-17 19:35:00
1:55 PM,16.7,1.8,52,29.99,10.0,SE,9.2,-,N/A,,Clear,140,2013-02-17 19:55:00
2:15 PM,16.9,1.6,51,29.99,10.0,SSE,12.7,-,N/A,,Clear,160,2013-02-17 20:15:00
2:35 PM,17.4,1.8,50,29.98,10.0,SSE,10.4,-,N/A,,Clear,160,2013-02-17 20:35:00
2:55 PM,17.4,2.5,52,29.98,10.0,South,10.4,-,N/A,,Clear,170,2013-02-17 20:55:00
3:15 PM,17.2,1.9,51,29.98,10.0,SSE,9.2,-,N/A,,Clear,160,2013-02-17 21:15:00
3:35 PM,16.7,2.5,54,29.97,10.0,SSE,13.8,-,N/A,,Clear,160,2013-02-17 21:35:00
3:55 PM,16.7,2.8,55,29.96,10.0,SSE,12.7,-,N/A,,Scattered Clouds,150,2013-02-17 21:55:00
4:15 PM,15.8,1.2,53,29.96,10.0,SSE,11.5,-,N/A,,Scattered Clouds,160,2013-02-17 22:15:00
4:35 PM,15.1,0.1,52,29.96,10.0,South,11.5,-,N/A,,Clear,170,2013-02-17 22:35:00
4:55 PM,13.6,-0.4,54,29.96,10.0,South,13.8,-,N/A,,Clear,170,2013-02-17 22:55:00
5:15 PM,12.7,-0.9,54,29.95,10.0,SSE,10.4,-,N/A,,Clear,160,2013-02-17 23:15:00
5:35 PM,12.7,-0.9,54,29.94,10.0,SSE,10.4,-,N/A,,Clear,150,2013-02-17 23:35:00
5:55 PM,12.4,0.1,58,29.94,10.0,SE,9.2,-,N/A,,Clear,140,2013-02-17 23:55:00
6:15 PM,12.7,1.0,60,29.94,10.0,SE,9.2,-,N/A,,Clear,140,2013-02-18 00:15:00
6:35 PM,12.6,1.2,61,29.93,10.0,SE,10.4,-,N/A,,Scattered Clouds,140,2013-02-18 00:35:00
6:55 PM,12.0,1.2,62,29.94,10.0,SSE,9.2,-,N/A,,Clear,150,2013-02-18 00:55:00
7:15 PM,12.2,1.2,61,29.94,10.0,SSE,10.4,-,N/A,,Clear,160,2013-02-18 01:15:00
7:35 PM,12.0,1.4,62,29.93,10.0,SSE,11.5,-,N/A,,Clear,150,2013-02-18 01:35:00
7:55 PM,12.0,1.6,63,29.92,10.0,SSE,11.5,-,N/A,,Scattered Clouds,150,2013-02-18 01:55:00
8:15 PM,12.0,1.8,64,29.92,10.0,SSE,9.2,-,N/A,,Scattered Clouds,160,2013-02-18 02:15:00
8:35 PM,12.2,2.1,64,29.92,10.0,SSE,10.4,-,N/A,,Scattered Clouds,150,2013-02-18 02:35:00
8:55 PM,12.6,3.2,66,29.91,10.0,SSE,11.5,-,N/A,,Scattered Clouds,150,2013-02-18 02:55:00
9:15 PM,13.1,3.6,66,29.91,10.0,SSE,10.4,16.1,N/A,,Scattered Clouds,160,2013-02-18 03:15:00
9:35 PM,13.6,4.1,66,29.90,10.0,SSE,13.8,-,N/A,,Mostly Cloudy,150,2013-02-18 03:35:00
9:55 PM,13.6,4.1,66,29.90,10.0,SSE,13.8,-,N/A,,Overcast,150,2013-02-18 03:55:00
10:15 PM,13.5,3.6,65,29.88,10.0,SSE,12.7,-,N/A,,Mostly Cloudy,150,2013-02-18 04:15:00
10:35 PM,13.8,3.4,63,29.88,10.0,SSE,12.7,-,N/A,,Overcast,150,2013-02-18 04:35:00
10:55 PM,14.2,4.5,65,29.87,10.0,SSE,12.7,-,N/A,,Overcast,150,2013-02-18 04:55:00
11:15 PM,14.9,4.8,64,29.86,10.0,SSE,10.4,-,N/A,,Overcast,150,2013-02-18 05:15:00
11:35 PM,15.3,5.0,64,29.85,10.0,SSE,12.7,-,N/A,,Overcast,150,2013-02-18 05:35:00
11:55 PM,15.8,6.1,66,29.85,10.0,SSE,12.7,-,N/A,,Overcast,150,2013-02-18 05:55:00